createdAt,value
2023-03-29T00:00:58.401Z,574.00
2023-03-29T00:01:58.390Z,575.00
2023-03-29T00:02:58.483Z,572.00
2023-03-29T00:04:00.448Z,572.00
2023-03-29T00:04:58.395Z,573.00
2023-03-29T00:05:58.373Z,574.00
2023-03-29T00:06:58.372Z,573.00
2023-03-29T00:07:58.332Z,573.00
2023-03-29T00:08:58.312Z,571.00
2023-03-29T00:09:58.286Z,571.00
2023-03-29T00:10:58.266Z,570.00
2023-03-29T00:11:58.246Z,572.00
2023-03-29T00:12:58.228Z,570.00
2023-03-29T00:13:58.210Z,570.00
2023-03-29T00:14:58.180Z,568.00
2023-03-29T00:15:58.156Z,569.00
2023-03-29T00:16:58.180Z,565.00
2023-03-29T00:17:58.197Z,569.00
2023-03-29T00:18:58.105Z,570.00
2023-03-29T00:19:58.085Z,573.00
2023-03-29T00:20:58.063Z,574.00
2023-03-29T00:21:58.045Z,573.00
2023-03-29T00:22:58.029Z,575.00
2023-03-29T00:23:58.003Z,572.00
2023-03-29T00:24:57.996Z,573.00
2023-03-29T00:25:57.972Z,573.00
2023-03-29T00:26:57.957Z,570.00
2023-03-29T00:27:57.939Z,571.00
2023-03-29T00:28:57.916Z,573.00
2023-03-29T00:29:58.918Z,572.00
2023-03-29T00:30:57.910Z,572.00
2023-03-29T00:31:57.901Z,574.00
2023-03-29T00:32:57.920Z,572.00
2023-03-29T00:33:57.834Z,570.00
2023-03-29T00:34:57.812Z,569.00
2023-03-29T00:35:57.843Z,570.00
2023-03-29T00:36:57.772Z,568.00
2023-03-29T00:37:57.757Z,571.00
2023-03-29T00:38:57.727Z,572.00
2023-03-29T00:39:57.710Z,571.00
2023-03-29T00:40:57.726Z,570.00
2023-03-29T00:41:57.790Z,568.00
2023-03-29T00:42:57.769Z,568.00
2023-03-29T00:43:57.809Z,567.00
2023-03-29T00:44:57.819Z,568.00
2023-03-29T00:45:57.923Z,570.00
2023-03-29T00:46:57.872Z,569.00
2023-03-29T00:47:58.003Z,570.00
2023-03-29T00:48:57.928Z,570.00
2023-03-29T00:49:57.959Z,572.00
2023-03-29T00:50:58.384Z,571.00
2023-03-29T00:51:58.005Z,572.00
2023-03-29T00:52:58.015Z,571.00
2023-03-29T00:53:58.048Z,568.00
2023-03-29T00:54:58.072Z,569.00
2023-03-29T00:55:58.100Z,566.00
2023-03-29T00:56:58.131Z,564.00
2023-03-29T00:57:58.110Z,566.00
2023-03-29T00:58:58.115Z,566.00
2023-03-29T00:59:58.112Z,566.00
2023-03-29T01:00:58.128Z,565.00
2023-03-29T01:01:58.247Z,567.00
2023-03-29T01:02:58.274Z,567.00
2023-03-29T01:03:58.189Z,568.00
2023-03-29T01:04:58.196Z,567.00
2023-03-29T01:05:58.236Z,565.00
2023-03-29T01:06:58.269Z,563.00
2023-03-29T01:07:58.294Z,563.00
2023-03-29T01:08:58.203Z,566.00
2023-03-29T01:09:58.217Z,568.00
2023-03-29T01:10:58.220Z,565.00
2023-03-29T01:11:58.230Z,564.00
2023-03-29T01:12:58.225Z,565.00
2023-03-29T01:13:58.242Z,566.00
2023-03-29T01:14:58.253Z,564.00
2023-03-29T01:15:58.283Z,563.00
2023-03-29T01:16:58.348Z,563.00
2023-03-29T01:17:58.464Z,562.00
2023-03-29T01:18:58.312Z,560.00
2023-03-29T01:19:58.365Z,559.00
2023-03-29T01:20:58.309Z,558.00
2023-03-29T01:21:58.312Z,561.00
2023-03-29T01:22:58.326Z,561.00
2023-03-29T01:23:58.404Z,565.00
2023-03-29T01:24:58.345Z,564.00
2023-03-29T01:25:58.351Z,565.00
2023-03-29T01:26:58.352Z,562.00
2023-03-29T01:27:58.381Z,563.00
2023-03-29T01:28:58.366Z,563.00
2023-03-29T01:29:58.428Z,564.00
2023-03-29T01:30:58.396Z,566.00
2023-03-29T01:31:58.431Z,567.00
2023-03-29T01:32:58.475Z,567.00
2023-03-29T01:33:58.477Z,566.00
2023-03-29T01:34:58.499Z,563.00
2023-03-29T01:35:58.634Z,562.00
2023-03-29T01:36:58.575Z,562.00
2023-03-29T01:37:58.582Z,559.00
2023-03-29T01:38:58.618Z,557.00
2023-03-29T01:39:58.694Z,561.00
2023-03-29T01:40:58.682Z,563.00
2023-03-29T01:41:58.705Z,567.00
2023-03-29T01:42:58.734Z,569.00
2023-03-29T01:43:58.762Z,568.00
2023-03-29T01:44:58.827Z,563.00
2023-03-29T01:45:58.847Z,559.00
2023-03-29T01:46:58.837Z,562.00
2023-03-29T01:47:58.911Z,560.00
2023-03-29T01:48:58.901Z,560.00
2023-03-29T01:49:58.936Z,562.00
2023-03-29T01:50:59.055Z,562.00
2023-03-29T01:51:58.972Z,562.00
2023-03-29T01:52:59.008Z,561.00
2023-03-29T01:53:59.031Z,562.00
2023-03-29T01:54:59.063Z,560.00
2023-03-29T01:55:59.095Z,560.00
2023-03-29T01:56:59.156Z,561.00
2023-03-29T01:57:59.162Z,560.00
2023-03-29T01:58:59.169Z,562.00
2023-03-29T01:59:59.243Z,564.00
2023-03-29T02:00:59.284Z,562.00
2023-03-29T02:01:59.316Z,561.00
2023-03-29T02:02:59.396Z,560.00
2023-03-29T02:03:59.316Z,561.00
2023-03-29T02:04:59.906Z,559.00
2023-03-29T02:05:59.370Z,560.00
2023-03-29T02:06:59.409Z,559.00
2023-03-29T02:07:59.401Z,558.00
2023-03-29T02:08:59.430Z,557.00
2023-03-29T02:09:59.475Z,559.00
2023-03-29T02:11:00.054Z,560.00
2023-03-29T02:11:59.521Z,560.00
2023-03-29T02:12:59.543Z,561.00
2023-03-29T02:13:59.573Z,560.00
2023-03-29T02:14:59.598Z,558.00
2023-03-29T02:16:00.474Z,558.00
2023-03-29T02:16:59.909Z,561.00
2023-03-29T02:17:59.761Z,563.00
2023-03-29T02:18:59.714Z,561.00
2023-03-29T02:19:59.747Z,559.00
2023-03-29T02:20:59.916Z,559.00
2023-03-29T02:21:59.807Z,559.00
2023-03-29T02:22:59.833Z,559.00
2023-03-29T02:23:59.856Z,557.00
2023-03-29T02:24:59.888Z,556.00
2023-03-29T02:25:59.902Z,555.00
2023-03-29T02:26:59.931Z,555.00
2023-03-29T02:27:59.957Z,554.00
2023-03-29T02:28:59.987Z,552.00
2023-03-29T02:30:01.264Z,556.00
2023-03-29T02:31:00.291Z,556.00
2023-03-29T02:32:00.051Z,557.00
2023-03-29T02:33:00.235Z,553.00
2023-03-29T02:34:00.144Z,555.00
2023-03-29T02:35:00.153Z,556.00
2023-03-29T02:36:00.212Z,556.00
2023-03-29T02:37:00.220Z,557.00
2023-03-29T02:38:00.230Z,557.00
2023-03-29T02:39:00.264Z,558.00
2023-03-29T02:40:00.295Z,556.00
2023-03-29T02:41:01.152Z,557.00
2023-03-29T02:42:00.439Z,556.00
2023-03-29T02:43:00.386Z,556.00
2023-03-29T02:44:01.407Z,554.00
2023-03-29T02:45:00.447Z,549.00
2023-03-29T02:46:00.484Z,548.00
2023-03-29T02:47:00.550Z,548.00
2023-03-29T02:48:00.631Z,551.00
2023-03-29T02:49:00.568Z,551.00
2023-03-29T02:50:00.609Z,549.00
2023-03-29T02:51:00.804Z,551.00
2023-03-29T02:52:00.651Z,551.00
2023-03-29T02:53:00.695Z,554.00
2023-03-29T02:54:00.713Z,554.00
2023-03-29T02:55:00.758Z,553.00
2023-03-29T02:56:00.830Z,554.00
2023-03-29T02:57:00.867Z,555.00
2023-03-29T02:58:00.827Z,555.00
2023-03-29T02:59:00.852Z,555.00
2023-03-29T03:00:01.158Z,552.00
2023-03-29T03:01:01.228Z,552.00
2023-03-29T03:02:02.035Z,549.00
2023-03-29T03:03:02.006Z,547.00
2023-03-29T03:04:01.036Z,545.00
2023-03-29T03:05:01.036Z,546.00
2023-03-29T03:06:01.041Z,547.00
2023-03-29T03:07:01.053Z,547.00
2023-03-29T03:08:01.072Z,546.00
2023-03-29T03:09:01.090Z,547.00
2023-03-29T03:10:01.105Z,545.00
2023-03-29T03:11:01.294Z,544.00
2023-03-29T03:12:01.115Z,544.00
2023-03-29T03:13:01.130Z,545.00
2023-03-29T03:14:01.140Z,542.00
2023-03-29T03:15:01.160Z,543.00
2023-03-29T03:16:01.929Z,543.00
2023-03-29T03:17:03.898Z,543.00
2023-03-29T03:18:01.149Z,543.00
2023-03-29T03:19:01.090Z,543.00
2023-03-29T03:20:01.070Z,544.00
2023-03-29T03:21:01.280Z,543.00
2023-03-29T03:22:01.009Z,543.00
2023-03-29T03:23:01.004Z,546.00
2023-03-29T03:24:00.976Z,547.00
2023-03-29T03:25:00.955Z,549.00
2023-03-29T03:26:00.939Z,547.00
2023-03-29T03:27:00.913Z,546.00
2023-03-29T03:28:00.877Z,546.00
2023-03-29T03:29:00.873Z,544.00
2023-03-29T03:30:01.080Z,543.00
2023-03-29T03:31:00.976Z,547.00
2023-03-29T03:32:00.835Z,548.00
2023-03-29T03:33:00.798Z,547.00
2023-03-29T03:34:00.760Z,547.00
2023-03-29T03:35:00.735Z,545.00
2023-03-29T03:36:00.751Z,547.00
2023-03-29T03:37:00.700Z,544.00
2023-03-29T03:38:00.683Z,544.00
2023-03-29T03:39:00.658Z,542.00
2023-03-29T03:40:00.721Z,544.00
2023-03-29T03:41:00.950Z,543.00
2023-03-29T03:42:00.591Z,542.00
2023-03-29T03:43:00.581Z,542.00
2023-03-29T03:44:00.558Z,544.00
2023-03-29T03:45:00.523Z,547.00
2023-03-29T03:46:00.561Z,547.00
2023-03-29T03:47:00.499Z,548.00
2023-03-29T03:48:00.535Z,549.00
2023-03-29T03:49:00.429Z,549.00
2023-03-29T03:50:00.400Z,550.00
2023-03-29T03:51:00.709Z,548.00
2023-03-29T03:52:00.353Z,548.00
2023-03-29T03:53:00.326Z,546.00
2023-03-29T03:54:00.306Z,549.00
2023-03-29T03:55:00.306Z,550.00
2023-03-29T03:56:00.249Z,549.00
2023-03-29T03:57:00.254Z,547.00
2023-03-29T03:58:00.196Z,545.00
2023-03-29T03:59:00.182Z,542.00
2023-03-29T04:00:00.215Z,539.00
2023-03-29T04:01:00.249Z,538.00
2023-03-29T04:02:00.196Z,535.00
2023-03-29T04:03:00.134Z,534.00
2023-03-29T04:04:00.120Z,537.00
2023-03-29T04:05:00.002Z,537.00
2023-03-29T04:05:59.970Z,536.00
2023-03-29T04:06:59.946Z,534.00
2023-03-29T04:07:59.924Z,531.00
2023-03-29T04:08:59.970Z,533.00
2023-03-29T04:09:59.858Z,533.00
2023-03-29T04:11:00.105Z,535.00
2023-03-29T04:11:59.813Z,534.00
2023-03-29T04:12:59.796Z,532.00
2023-03-29T04:13:59.762Z,530.00
2023-03-29T04:14:59.734Z,532.00
2023-03-29T04:16:01.515Z,532.00
2023-03-29T04:16:59.679Z,533.00
2023-03-29T04:17:59.714Z,535.00
2023-03-29T04:18:59.669Z,537.00
2023-03-29T04:19:59.589Z,540.00
2023-03-29T04:20:59.664Z,541.00
2023-03-29T04:21:59.531Z,540.00
2023-03-29T04:22:59.504Z,541.00
2023-03-29T04:23:59.485Z,540.00
2023-03-29T04:24:59.448Z,541.00
2023-03-29T04:25:59.423Z,541.00
2023-03-29T04:26:59.398Z,538.00
2023-03-29T04:27:59.381Z,540.00
2023-03-29T04:28:59.352Z,539.00
2023-03-29T04:29:59.323Z,535.00
2023-03-29T04:30:59.311Z,534.00
2023-03-29T04:31:59.276Z,536.00
2023-03-29T04:32:59.265Z,535.00
2023-03-29T04:34:00.409Z,536.00
2023-03-29T04:34:59.251Z,536.00
2023-03-29T04:35:59.337Z,535.00
2023-03-29T04:36:59.234Z,535.00
2023-03-29T04:37:59.241Z,534.00
2023-03-29T04:38:59.231Z,536.00
2023-03-29T04:39:59.991Z,535.00
2023-03-29T04:40:59.294Z,535.00
2023-03-29T04:41:59.220Z,534.00
2023-03-29T04:42:59.227Z,534.00
2023-03-29T04:43:59.298Z,536.00
2023-03-29T04:44:59.253Z,536.00
2023-03-29T04:45:59.237Z,537.00
2023-03-29T04:46:59.222Z,537.00
2023-03-29T04:47:59.254Z,539.00
2023-03-29T04:48:59.233Z,543.00
2023-03-29T04:49:59.234Z,543.00
2023-03-29T04:50:59.296Z,542.00
2023-03-29T04:51:59.222Z,542.00
2023-03-29T04:52:59.230Z,539.00
2023-03-29T04:53:59.237Z,538.00
2023-03-29T04:54:59.232Z,535.00
2023-03-29T04:55:59.236Z,535.00
2023-03-29T04:56:59.264Z,538.00
2023-03-29T04:57:59.239Z,538.00
2023-03-29T04:58:59.263Z,540.00
2023-03-29T04:59:59.267Z,540.00
2023-03-29T05:00:59.359Z,537.00
2023-03-29T05:01:59.262Z,538.00
2023-03-29T05:02:59.271Z,537.00
2023-03-29T05:03:59.261Z,535.00
2023-03-29T05:04:59.347Z,533.00
2023-03-29T05:05:59.246Z,532.00
2023-03-29T05:06:59.252Z,533.00
2023-03-29T05:07:59.253Z,533.00
2023-03-29T05:08:59.467Z,535.00
2023-03-29T05:09:59.267Z,533.00
2023-03-29T05:10:59.347Z,532.00
2023-03-29T05:11:59.269Z,532.00
2023-03-29T05:12:59.262Z,534.00
2023-03-29T05:13:59.276Z,533.00
2023-03-29T05:14:59.296Z,535.00
2023-03-29T05:15:59.324Z,536.00
2023-03-29T05:16:59.302Z,536.00
2023-03-29T05:17:59.413Z,535.00
2023-03-29T05:18:59.323Z,535.00
2023-03-29T05:19:59.339Z,540.00
2023-03-29T05:20:59.508Z,533.00
2023-03-29T05:21:59.350Z,532.00
2023-03-29T05:22:59.368Z,534.00
2023-03-29T05:23:59.370Z,539.00
2023-03-29T05:24:59.396Z,549.00
2023-03-29T05:25:59.391Z,600.00
2023-03-29T05:26:59.415Z,618.00
2023-03-29T05:27:59.414Z,633.00
2023-03-29T05:28:59.412Z,638.00
2023-03-29T05:29:59.431Z,701.00
2023-03-29T05:30:59.597Z,671.00
2023-03-29T05:31:59.542Z,684.00
2023-03-29T05:32:59.602Z,679.00
2023-03-29T05:33:59.569Z,672.00
2023-03-29T05:35:00.437Z,688.00
2023-03-29T05:35:59.610Z,701.00
2023-03-29T05:36:59.643Z,756.00
2023-03-29T05:37:59.692Z,823.00
2023-03-29T05:38:59.756Z,898.00
2023-03-29T05:40:05.702Z,910.00
2023-03-29T05:41:00.941Z,925.00
2023-03-29T05:41:59.721Z,954.00
2023-03-29T05:42:59.707Z,971.00
2023-03-29T05:43:59.688Z,998.00
2023-03-29T05:44:59.687Z,1091.00
2023-03-29T05:45:59.678Z,1120.00
2023-03-29T05:46:59.621Z,1131.00
2023-03-29T05:47:59.615Z,1187.00
2023-03-29T05:48:59.568Z,1209.00
2023-03-29T05:49:59.540Z,1232.00
2023-03-29T05:50:59.512Z,1267.00
2023-03-29T05:51:59.552Z,1309.00
2023-03-29T05:52:59.535Z,1326.00
2023-03-29T05:53:59.987Z,882.00
2023-03-29T05:55:00.399Z,855.00
2023-03-29T05:55:59.510Z,773.00
2023-03-29T05:56:59.513Z,819.00
2023-03-29T05:57:59.492Z,890.00
2023-03-29T05:58:59.510Z,997.00
2023-03-29T05:59:59.510Z,1021.00
2023-03-29T06:00:59.510Z,1039.00
2023-03-29T06:01:59.488Z,1060.00
2023-03-29T06:03:09.856Z,1117.00
2023-03-29T06:04:00.542Z,1137.00
2023-03-29T06:04:59.510Z,1221.00
2023-03-29T06:05:59.460Z,1225.00
2023-03-29T06:06:59.437Z,1248.00
2023-03-29T06:07:59.396Z,1302.00
2023-03-29T06:08:59.366Z,1311.00
2023-03-29T06:09:59.331Z,1345.00
2023-03-29T06:10:59.961Z,1368.00
2023-03-29T06:11:59.281Z,1423.00
2023-03-29T06:12:59.239Z,1450.00
2023-03-29T06:13:59.212Z,1471.00
2023-03-29T06:14:59.183Z,1530.00
2023-03-29T06:15:59.143Z,1568.00
2023-03-29T06:16:59.175Z,1583.00
2023-03-29T06:17:59.106Z,1597.00
2023-03-29T06:18:59.054Z,1655.00
2023-03-29T06:19:59.099Z,1679.00
2023-03-29T06:20:59.045Z,1711.00
2023-03-29T06:21:58.992Z,1452.00
2023-03-29T06:22:59.030Z,1487.00
2023-03-29T06:23:58.936Z,1693.00
2023-03-29T06:24:58.904Z,1623.00
2023-03-29T06:25:58.920Z,1310.00
2023-03-29T06:26:58.972Z,1375.00
2023-03-29T06:27:59.998Z,1355.00
2023-03-29T06:28:59.991Z,1401.00
2023-03-29T06:29:59.091Z,1416.00
2023-03-29T06:30:59.192Z,1444.00
2023-03-29T06:31:59.237Z,1462.00
2023-03-29T06:32:59.254Z,1477.00
2023-03-29T06:33:59.233Z,1489.00
2023-03-29T06:34:59.239Z,1498.00
2023-03-29T06:35:59.960Z,1505.00
2023-03-29T06:36:59.260Z,1512.00
2023-03-29T06:37:59.270Z,1521.00
2023-03-29T06:38:59.280Z,1541.00
2023-03-29T06:39:59.296Z,1550.00
2023-03-29T06:40:59.326Z,1576.00
2023-03-29T06:42:01.982Z,1601.00
2023-03-29T06:43:00.334Z,1614.00
2023-03-29T06:43:59.235Z,1619.00
2023-03-29T06:44:59.199Z,1623.00
2023-03-29T06:45:59.214Z,1629.00
2023-03-29T06:46:59.154Z,1634.00
2023-03-29T06:47:59.191Z,1641.00
2023-03-29T06:48:59.094Z,1648.00
2023-03-29T06:49:59.072Z,1652.00
2023-03-29T06:50:59.043Z,1653.00
2023-03-29T06:51:59.294Z,1655.00
2023-03-29T06:52:58.986Z,1660.00
2023-03-29T06:53:58.971Z,1665.00
2023-03-29T06:54:58.942Z,1663.00
2023-03-29T06:55:58.904Z,1668.00
2023-03-29T06:56:58.937Z,1670.00
2023-03-29T06:58:01.734Z,1673.00
2023-03-29T06:58:58.829Z,1676.00
2023-03-29T06:59:58.803Z,1679.00
2023-03-29T07:00:58.776Z,1686.00
2023-03-29T07:01:58.896Z,1690.00
2023-03-29T07:02:58.855Z,1691.00
2023-03-29T07:03:58.731Z,1697.00
2023-03-29T07:04:58.694Z,1700.00
2023-03-29T07:05:58.741Z,1701.00
2023-03-29T07:06:58.646Z,1707.00
2023-03-29T07:07:58.699Z,1709.00
2023-03-29T07:08:58.608Z,1711.00
2023-03-29T07:09:58.623Z,1715.00
2023-03-29T07:10:58.560Z,1722.00
2023-03-29T07:11:58.526Z,1730.00
2023-03-29T07:12:58.498Z,1742.00
2023-03-29T07:13:58.463Z,1766.00
2023-03-29T07:14:58.434Z,2081.00
2023-03-29T07:15:58.456Z,1812.00
2023-03-29T07:16:58.423Z,1797.00
2023-03-29T07:17:58.431Z,1744.00
2023-03-29T07:18:58.348Z,1822.00
2023-03-29T07:19:58.356Z,1827.00
2023-03-29T07:20:58.302Z,1271.00
2023-03-29T07:21:58.283Z,1186.00
2023-03-29T07:22:58.264Z,1062.00
2023-03-29T07:23:58.239Z,1127.00
2023-03-29T07:24:58.229Z,1079.00
2023-03-29T07:25:58.212Z,1104.00
2023-03-29T07:27:04.047Z,1139.00
2023-03-29T07:27:59.391Z,1178.00
2023-03-29T07:28:58.171Z,1184.00
2023-03-29T07:29:58.165Z,1200.00
2023-03-29T07:30:58.146Z,1211.00
2023-03-29T07:31:58.139Z,1248.00
2023-03-29T07:32:58.250Z,1239.00
2023-03-29T07:33:58.145Z,1254.00
2023-03-29T07:34:58.093Z,1290.00
2023-03-29T07:35:58.187Z,1308.00
2023-03-29T07:36:58.066Z,1315.00
2023-03-29T07:37:58.044Z,1319.00
2023-03-29T07:38:58.027Z,1308.00
2023-03-29T07:39:58.045Z,1306.00
2023-03-29T07:40:58.094Z,1316.00
2023-03-29T07:41:58.164Z,1331.00
2023-03-29T07:42:58.192Z,1337.00
2023-03-29T07:43:58.294Z,1346.00
2023-03-29T07:44:58.337Z,1355.00
2023-03-29T07:45:58.358Z,1367.00
2023-03-29T07:46:58.372Z,1371.00
2023-03-29T07:47:58.674Z,1377.00
2023-03-29T07:48:58.424Z,1375.00
2023-03-29T07:49:58.458Z,1381.00
2023-03-29T07:50:58.498Z,1389.00
2023-03-29T07:51:58.510Z,1391.00
2023-03-29T07:52:58.536Z,1396.00
2023-03-29T07:53:58.602Z,1402.00
2023-03-29T07:54:58.576Z,1406.00
2023-03-29T07:55:58.619Z,1412.00
2023-03-29T07:56:58.675Z,1410.00
2023-03-29T07:57:58.637Z,1415.00
2023-03-29T07:58:58.670Z,1418.00
2023-03-29T07:59:58.685Z,1419.00
2023-03-29T08:00:58.782Z,1416.00
2023-03-29T08:01:58.713Z,1409.00
2023-03-29T08:02:59.555Z,1411.00
2023-03-29T08:03:58.856Z,1414.00
2023-03-29T08:04:58.771Z,1417.00
2023-03-29T08:05:58.755Z,1420.00
2023-03-29T08:06:58.777Z,1427.00
2023-03-29T08:07:58.785Z,1432.00
2023-03-29T08:08:58.791Z,1438.00
2023-03-29T08:09:58.795Z,1451.00
2023-03-29T08:10:58.808Z,1431.00
2023-03-29T08:11:58.814Z,1351.00
2023-03-29T08:12:59.033Z,1395.00
2023-03-29T08:13:58.836Z,1035.00
2023-03-29T08:14:58.839Z,1051.00
2023-03-29T08:15:58.830Z,1006.00
2023-03-29T08:16:58.898Z,993.00
2023-03-29T08:17:58.891Z,853.00
2023-03-29T08:18:59.539Z,851.00
2023-03-29T08:19:58.987Z,821.00
2023-03-29T08:21:00.855Z,866.00
2023-03-29T08:21:58.921Z,921.00
2023-03-29T08:22:58.891Z,975.00
2023-03-29T08:23:58.890Z,985.00
2023-03-29T08:24:58.860Z,1079.00
2023-03-29T08:25:59.534Z,1091.00
2023-03-29T08:26:58.822Z,1074.00
2023-03-29T08:27:58.829Z,1126.00
2023-03-29T08:28:58.796Z,1151.00
2023-03-29T08:29:58.777Z,1211.00
2023-03-29T08:30:58.867Z,1226.00
2023-03-29T08:31:58.749Z,1332.00
2023-03-29T08:32:58.741Z,1351.00
2023-03-29T08:33:58.734Z,1356.00
2023-03-29T08:34:58.775Z,1372.00
2023-03-29T08:35:58.878Z,1423.00
2023-03-29T08:36:59.466Z,1443.00
2023-03-29T08:37:58.837Z,1449.00
2023-03-29T08:38:58.844Z,1472.00
2023-03-29T08:39:58.856Z,1505.00
2023-03-29T08:40:58.844Z,1524.00
2023-03-29T08:41:58.857Z,1553.00
2023-03-29T08:42:58.841Z,1561.00
2023-03-29T08:43:58.825Z,1649.00
2023-03-29T08:44:58.819Z,1653.00
2023-03-29T08:45:58.817Z,1663.00
2023-03-29T08:46:59.697Z,1726.00
2023-03-29T08:47:58.800Z,1740.00
2023-03-29T08:48:58.730Z,1745.00
2023-03-29T08:49:58.703Z,1755.00
2023-03-29T08:50:58.716Z,1778.00
2023-03-29T08:51:58.724Z,1826.00
2023-03-29T08:53:01.542Z,1840.00
2023-03-29T08:53:58.756Z,1869.00
2023-03-29T08:54:59.551Z,1916.00
2023-03-29T08:55:58.655Z,1938.00
2023-03-29T08:56:59.582Z,1956.00
2023-03-29T08:57:58.598Z,1976.00
2023-03-29T08:59:00.482Z,1997.00
2023-03-29T08:59:58.541Z,2024.00
2023-03-29T09:00:58.499Z,2052.00
2023-03-29T09:01:58.540Z,2076.00
2023-03-29T09:02:58.513Z,2107.00
2023-03-29T09:03:58.449Z,2137.00
2023-03-29T09:04:58.370Z,2160.00
2023-03-29T09:05:58.337Z,2175.00
2023-03-29T09:06:58.308Z,2205.00
2023-03-29T09:07:58.291Z,2223.00
2023-03-29T09:08:58.321Z,2243.00
2023-03-29T09:09:58.342Z,2294.00
2023-03-29T09:10:58.372Z,2326.00
2023-03-29T09:11:58.412Z,2342.00
2023-03-29T09:12:58.438Z,2375.00
2023-03-29T09:13:58.458Z,2411.00
2023-03-29T09:14:58.483Z,2431.00
2023-03-29T09:15:58.559Z,2496.00
2023-03-29T09:16:58.566Z,2531.00
2023-03-29T09:17:58.667Z,2440.00
2023-03-29T09:18:58.633Z,2410.00
2023-03-29T09:19:58.664Z,2417.00
2023-03-29T09:20:58.785Z,2421.00
2023-03-29T09:21:58.747Z,2424.00
2023-03-29T09:22:59.557Z,2429.00
2023-03-29T09:23:58.822Z,2427.00
2023-03-29T09:24:58.823Z,2429.00
2023-03-29T09:25:59.618Z,2425.00
2023-03-29T09:26:58.912Z,2417.00
2023-03-29T09:27:58.926Z,2419.00
2023-03-29T09:28:59.001Z,2418.00
2023-03-29T09:29:59.070Z,2412.00
2023-03-29T09:30:58.930Z,2406.00
2023-03-29T09:31:58.953Z,2405.00
2023-03-29T09:32:58.937Z,2404.00
2023-03-29T09:33:58.838Z,2400.00
2023-03-29T09:34:58.808Z,2392.00
2023-03-29T09:35:58.839Z,2390.00
2023-03-29T09:36:58.778Z,2379.00
2023-03-29T09:37:58.763Z,2378.00
2023-03-29T09:38:58.739Z,2380.00
2023-03-29T09:39:58.715Z,2372.00
2023-03-29T09:40:58.833Z,2365.00
2023-03-29T09:41:58.683Z,2356.00
2023-03-29T09:42:58.692Z,2348.00
2023-03-29T09:43:59.086Z,2350.00
2023-03-29T09:44:58.653Z,2350.00
2023-03-29T09:45:58.675Z,2344.00
2023-03-29T09:46:58.653Z,2340.00
2023-03-29T09:47:58.696Z,2340.00
2023-03-29T09:48:58.657Z,2337.00
2023-03-29T09:49:58.637Z,2336.00
2023-03-29T09:50:58.624Z,2331.00
2023-03-29T09:51:58.628Z,2332.00
2023-03-29T09:52:58.666Z,2332.00
2023-03-29T09:53:59.071Z,2334.00
2023-03-29T09:54:58.621Z,2334.00
2023-03-29T09:55:58.643Z,2332.00
2023-03-29T09:56:58.685Z,2324.00
2023-03-29T09:57:59.579Z,2318.00
2023-03-29T09:58:58.630Z,2312.00
2023-03-29T09:59:58.623Z,2307.00
2023-03-29T10:00:58.664Z,2303.00
2023-03-29T10:01:59.564Z,2303.00
2023-03-29T10:02:58.593Z,2304.00
2023-03-29T10:03:58.531Z,2301.00
2023-03-29T10:04:58.489Z,2299.00
2023-03-29T10:05:58.464Z,2301.00
2023-03-29T10:06:58.424Z,2303.00
2023-03-29T10:07:58.397Z,2298.00
2023-03-29T10:08:58.367Z,2293.00
2023-03-29T10:09:58.431Z,2286.00
2023-03-29T10:10:58.328Z,2290.00
2023-03-29T10:11:58.477Z,2294.00
2023-03-29T10:12:58.268Z,2288.00
2023-03-29T10:13:58.297Z,2287.00
2023-03-29T10:14:58.206Z,2285.00
2023-03-29T10:15:58.180Z,2284.00
2023-03-29T10:16:58.179Z,2274.00
2023-03-29T10:17:58.152Z,2260.00
2023-03-29T10:18:58.106Z,2250.00
2023-03-29T10:19:58.085Z,2244.00
2023-03-29T10:20:58.051Z,2241.00
2023-03-29T10:21:58.031Z,2240.00
2023-03-29T10:22:58.029Z,2236.00
2023-03-29T10:23:57.987Z,2231.00
2023-03-29T10:24:57.979Z,2228.00
2023-03-29T10:25:57.940Z,2228.00
2023-03-29T10:26:57.928Z,2226.00
2023-03-29T10:27:57.895Z,2223.00
2023-03-29T10:28:57.863Z,2221.00
2023-03-29T10:29:58.100Z,2214.00
2023-03-29T10:30:57.892Z,2207.00
2023-03-29T10:31:57.889Z,2203.00
2023-03-29T10:32:57.830Z,2200.00
2023-03-29T10:33:57.785Z,2194.00
2023-03-29T10:34:57.803Z,2183.00
2023-03-29T10:35:57.899Z,2175.00
2023-03-29T10:36:57.788Z,2176.00
2023-03-29T10:37:57.778Z,2173.00
2023-03-29T10:38:57.781Z,2170.00
2023-03-29T10:39:57.779Z,2163.00
2023-03-29T10:40:57.777Z,2158.00
2023-03-29T10:41:57.781Z,2156.00
2023-03-29T10:42:57.782Z,2149.00
2023-03-29T10:43:57.774Z,2143.00
2023-03-29T10:44:57.784Z,2138.00
2023-03-29T10:45:57.878Z,2136.00
2023-03-29T10:46:58.592Z,2131.00
2023-03-29T10:47:57.844Z,2124.00
2023-03-29T10:48:57.798Z,2126.00
2023-03-29T10:49:57.789Z,2123.00
2023-03-29T10:50:57.792Z,2124.00
2023-03-29T10:51:57.787Z,2122.00
2023-03-29T10:52:57.793Z,2113.00
2023-03-29T10:53:57.784Z,2108.00
2023-03-29T10:54:57.794Z,2103.00
2023-03-29T10:55:57.786Z,2104.00
2023-03-29T10:56:57.917Z,2103.00
2023-03-29T10:57:57.782Z,2098.00
2023-03-29T10:58:57.791Z,2096.00
2023-03-29T10:59:57.800Z,2092.00
2023-03-29T11:00:57.782Z,2084.00
2023-03-29T11:01:57.874Z,2081.00
2023-03-29T11:02:57.863Z,2080.00
2023-03-29T11:03:57.972Z,2079.00
2023-03-29T11:04:57.829Z,2074.00
2023-03-29T11:05:57.803Z,2073.00
2023-03-29T11:06:57.817Z,2070.00
2023-03-29T11:07:57.809Z,2069.00
2023-03-29T11:08:57.831Z,2064.00
2023-03-29T11:09:57.815Z,2063.00
2023-03-29T11:10:57.837Z,2061.00
2023-03-29T11:12:08.529Z,2059.00
2023-03-29T11:12:58.803Z,2052.00
2023-03-29T11:13:59.821Z,2048.00
2023-03-29T11:14:57.743Z,2046.00
2023-03-29T11:15:57.785Z,2040.00
2023-03-29T11:16:57.689Z,2031.00
2023-03-29T11:17:57.730Z,2027.00
2023-03-29T11:18:57.639Z,2024.00
2023-03-29T11:19:57.633Z,2024.00
2023-03-29T11:20:57.596Z,2021.00
2023-03-29T11:21:57.598Z,2019.00
2023-03-29T11:22:57.619Z,2017.00
2023-03-29T11:23:57.601Z,2019.00
2023-03-29T11:24:57.657Z,2018.00
2023-03-29T11:25:57.611Z,2013.00
2023-03-29T11:26:57.608Z,2010.00
2023-03-29T11:27:57.615Z,2003.00
2023-03-29T11:28:57.684Z,2004.00
2023-03-29T11:29:57.615Z,1997.00
2023-03-29T11:30:57.665Z,1998.00
2023-03-29T11:31:57.692Z,1996.00
2023-03-29T11:32:57.638Z,1994.00
2023-03-29T11:33:57.633Z,1988.00
2023-03-29T11:34:57.661Z,1982.00
2023-03-29T11:35:57.668Z,1981.00
2023-03-29T11:36:57.636Z,1974.00
2023-03-29T11:37:57.638Z,1973.00
2023-03-29T11:38:57.639Z,1971.00
2023-03-29T11:39:57.643Z,1968.00
2023-03-29T11:40:57.738Z,1966.00
2023-03-29T11:41:57.669Z,1963.00
2023-03-29T11:42:57.685Z,1955.00
2023-03-29T11:43:57.686Z,1952.00
2023-03-29T11:44:57.706Z,1953.00
2023-03-29T11:45:57.772Z,1953.00
2023-03-29T11:46:57.808Z,1952.00
2023-03-29T11:47:57.777Z,1953.00
2023-03-29T11:48:57.757Z,1949.00
2023-03-29T11:49:57.799Z,1944.00
2023-03-29T11:50:57.786Z,1939.00
2023-03-29T11:51:57.811Z,1931.00
2023-03-29T11:52:57.802Z,1927.00
2023-03-29T11:53:57.811Z,1927.00
2023-03-29T11:54:57.865Z,1918.00
2023-03-29T11:55:58.122Z,1915.00
2023-03-29T11:56:57.855Z,1909.00
2023-03-29T11:57:57.878Z,1906.00
2023-03-29T11:58:57.902Z,1908.00
2023-03-29T11:59:57.903Z,1910.00
2023-03-29T12:00:57.947Z,1904.00
2023-03-29T12:01:57.972Z,1901.00
2023-03-29T12:02:58.043Z,1900.00
2023-03-29T12:03:58.069Z,1895.00
2023-03-29T12:04:57.996Z,1891.00
2023-03-29T12:05:58.024Z,1888.00
2023-03-29T12:06:58.037Z,1881.00
2023-03-29T12:07:58.053Z,1882.00
2023-03-29T12:08:58.073Z,1881.00
2023-03-29T12:09:58.122Z,1875.00
2023-03-29T12:10:58.107Z,1867.00
2023-03-29T12:11:58.130Z,1862.00
2023-03-29T12:12:58.157Z,1861.00
2023-03-29T12:13:58.163Z,1855.00
2023-03-29T12:14:58.269Z,1851.00
2023-03-29T12:15:58.209Z,1847.00
2023-03-29T12:16:58.245Z,1842.00